createdAt,value
2022-08-11T00:00:13.448Z,1008.61
2022-08-11T00:01:18.147Z,1008.61
2022-08-11T00:02:22.751Z,1008.62
2022-08-11T00:03:43.490Z,1008.64
2022-08-11T00:04:31.696Z,1008.65
2022-08-11T00:05:36.196Z,1008.65
2022-08-11T00:06:40.724Z,1008.63
2022-08-11T00:07:45.244Z,1008.65
2022-08-11T00:08:49.753Z,1008.64
2022-08-11T00:09:54.293Z,1008.66
2022-08-11T00:10:58.795Z,1008.67
2022-08-11T00:12:03.316Z,1008.65
2022-08-11T00:13:07.830Z,1008.64
2022-08-11T00:14:12.335Z,1008.65
2022-08-11T00:15:16.856Z,1008.61
2022-08-11T00:16:21.368Z,1008.65
2022-08-11T00:17:25.896Z,1008.65
2022-08-11T00:18:30.417Z,1008.64
2022-08-11T00:20:12.372Z,1008.67
2022-08-11T00:20:39.452Z,1008.64
2022-08-11T00:22:05.292Z,1008.66
2022-08-11T00:22:48.507Z,1008.66
2022-08-11T00:23:53.025Z,1008.67
2022-08-11T00:25:02.063Z,1008.70
2022-08-11T00:26:02.048Z,1008.66
2022-08-11T00:27:06.570Z,1008.70
2022-08-11T00:28:11.099Z,1008.68
2022-08-11T00:29:15.612Z,1008.69
2022-08-11T00:30:20.119Z,1008.69
2022-08-11T00:31:24.639Z,1008.67
2022-08-11T00:32:29.172Z,1008.70
2022-08-11T00:33:41.318Z,1008.69
2022-08-11T00:34:38.187Z,1008.68
2022-08-11T00:35:55.151Z,1008.69
2022-08-11T00:36:47.231Z,1008.71
2022-08-11T00:37:51.740Z,1008.70
2022-08-11T00:38:56.250Z,1008.65
2022-08-11T00:40:00.913Z,1008.64
2022-08-11T00:41:05.257Z,1008.66
2022-08-11T00:42:09.780Z,1008.63
2022-08-11T00:43:20.393Z,1008.62
2022-08-11T00:44:18.792Z,1008.62
2022-08-11T00:45:23.322Z,1008.59
2022-08-11T00:46:27.830Z,1008.57
2022-08-11T00:47:32.364Z,1008.60
2022-08-11T00:48:36.897Z,1008.56
2022-08-11T00:49:41.409Z,1008.59
2022-08-11T00:50:45.934Z,1008.59
2022-08-11T00:52:04.013Z,1008.57
2022-08-11T00:52:55.013Z,1008.55
2022-08-11T00:53:59.537Z,1008.59
2022-08-11T00:55:04.054Z,1008.57
2022-08-11T00:56:08.562Z,1008.59
2022-08-11T00:57:37.046Z,1008.57
2022-08-11T00:58:21.911Z,1008.59
2022-08-11T00:59:34.990Z,1008.56
2022-08-11T01:00:26.665Z,1008.57
2022-08-11T01:01:31.221Z,1008.60
2022-08-11T01:02:35.725Z,1008.58
2022-08-11T01:03:40.252Z,1008.60
2022-08-11T01:04:44.771Z,1008.58
2022-08-11T01:05:49.281Z,1008.57
2022-08-11T01:06:53.794Z,1008.60
2022-08-11T01:08:02.740Z,1008.56
2022-08-11T01:09:02.826Z,1008.58
2022-08-11T01:10:07.683Z,1008.55
2022-08-11T01:11:11.871Z,1008.54
2022-08-11T01:12:16.385Z,1008.57
2022-08-11T01:13:20.924Z,1008.55
2022-08-11T01:14:33.565Z,1008.59
2022-08-11T01:15:29.956Z,1008.56
2022-08-11T01:16:34.470Z,1008.55
2022-08-11T01:17:39.006Z,1008.55
2022-08-11T01:18:43.523Z,1008.56
2022-08-11T01:20:45.248Z,1008.58
2022-08-11T01:20:52.546Z,1008.54
2022-08-11T01:21:57.048Z,1008.56
2022-08-11T01:23:01.586Z,1008.55
2022-08-11T01:24:06.097Z,1008.52
2022-08-11T01:25:10.610Z,1008.56
2022-08-11T01:26:15.120Z,1008.53
2022-08-11T01:27:20.105Z,1008.49
2022-08-11T01:28:24.176Z,1008.53
2022-08-11T01:29:28.689Z,1008.55
2022-08-11T01:30:33.208Z,1008.55
2022-08-11T01:31:37.786Z,1008.54
2022-08-11T01:32:42.328Z,1008.54
2022-08-11T01:33:46.829Z,1008.56
2022-08-11T01:34:51.351Z,1008.57
2022-08-11T01:35:55.896Z,1008.58
2022-08-11T01:37:00.399Z,1008.56
2022-08-11T01:38:04.949Z,1008.55
2022-08-11T01:39:09.529Z,1008.57
2022-08-11T01:40:13.996Z,1008.55
2022-08-11T01:41:18.491Z,1008.59
2022-08-11T01:42:23.012Z,1008.57
2022-08-11T01:43:27.539Z,1008.58
2022-08-11T01:44:32.080Z,1008.59
2022-08-11T01:45:36.590Z,1008.58
2022-08-11T01:46:41.110Z,1008.59
2022-08-11T01:47:52.474Z,1008.56
2022-08-11T01:48:50.159Z,1008.59
2022-08-11T01:50:07.852Z,1008.56
2022-08-11T01:50:59.180Z,1008.57
2022-08-11T01:52:03.691Z,1008.60
2022-08-11T01:53:08.214Z,1008.58
2022-08-11T01:54:12.732Z,1008.59
2022-08-11T01:55:17.232Z,1008.63
2022-08-11T01:56:21.764Z,1008.59
2022-08-11T01:57:26.271Z,1008.58
2022-08-11T01:58:43.671Z,1008.56
2022-08-11T01:59:35.311Z,1008.58
2022-08-11T02:00:39.891Z,1008.60
2022-08-11T02:01:44.345Z,1008.59
2022-08-11T02:02:48.912Z,1008.61
2022-08-11T02:03:53.420Z,1008.62
2022-08-11T02:04:57.929Z,1008.64
2022-08-11T02:06:02.449Z,1008.60
2022-08-11T02:07:08.808Z,1008.59
2022-08-11T02:08:11.759Z,1008.57
2022-08-11T02:09:17.213Z,1008.59
2022-08-11T02:10:20.512Z,1008.57
2022-08-11T02:11:25.017Z,1008.57
2022-08-11T02:12:29.573Z,1008.61
2022-08-11T02:13:36.816Z,1008.58
2022-08-11T02:14:38.632Z,1008.58
2022-08-11T02:15:43.145Z,1008.59
2022-08-11T02:16:47.667Z,1008.58
2022-08-11T02:17:54.725Z,1008.58
2022-08-11T02:18:56.714Z,1008.54
2022-08-11T02:20:01.216Z,1008.53
2022-08-11T02:21:05.726Z,1008.54
2022-08-11T02:22:10.236Z,1008.56
2022-08-11T02:23:14.800Z,1008.49
2022-08-11T02:24:19.298Z,1008.53
2022-08-11T02:25:23.817Z,1008.53
2022-08-11T02:26:28.318Z,1008.55
2022-08-11T02:27:32.826Z,1008.56
2022-08-11T02:28:38.981Z,1008.54
2022-08-11T02:29:41.856Z,1008.56
2022-08-11T02:30:46.466Z,1008.56
2022-08-11T02:32:24.539Z,1008.54
2022-08-11T02:32:55.419Z,1008.59
2022-08-11T02:33:59.956Z,1008.56
2022-08-11T02:35:04.474Z,1008.55
2022-08-11T02:36:08.981Z,1008.53
2022-08-11T02:37:13.509Z,1008.55
2022-08-11T02:38:18.049Z,1008.59
2022-08-11T02:39:22.615Z,1008.55
2022-08-11T02:40:27.079Z,1008.55
2022-08-11T02:41:31.602Z,1008.53
2022-08-11T02:42:36.473Z,1008.51
2022-08-11T02:43:40.651Z,1008.48
2022-08-11T02:44:45.158Z,1008.52
2022-08-11T02:45:49.660Z,1008.57
2022-08-11T02:46:54.168Z,1008.58
2022-08-11T02:47:58.679Z,1008.53
2022-08-11T02:49:03.238Z,1008.55
2022-08-11T02:50:08.050Z,1008.54
2022-08-11T02:51:12.281Z,1008.55
2022-08-11T02:52:16.782Z,1008.55
2022-08-11T02:53:21.301Z,1008.57
2022-08-11T02:54:25.834Z,1008.57
2022-08-11T02:55:50.948Z,1008.57
2022-08-11T02:56:34.891Z,1008.57
2022-08-11T02:57:39.394Z,1008.57
2022-08-11T02:58:43.955Z,1008.61
2022-08-11T02:59:48.452Z,1008.58
2022-08-11T03:00:52.998Z,1008.63
2022-08-11T03:02:00.626Z,1008.61
2022-08-11T03:03:02.013Z,1008.57
2022-08-11T03:04:06.562Z,1008.60
2022-08-11T03:05:11.082Z,1008.60
2022-08-11T03:06:15.586Z,1008.65
2022-08-11T03:07:29.077Z,1008.64
2022-08-11T03:08:24.636Z,1008.63
2022-08-11T03:09:29.154Z,1008.63
2022-08-11T03:10:33.683Z,1008.61
2022-08-11T03:11:38.193Z,1008.65
2022-08-11T03:12:42.733Z,1008.66
2022-08-11T03:13:47.267Z,1008.65
2022-08-11T03:14:51.776Z,1008.65
2022-08-11T03:15:56.296Z,1008.62
2022-08-11T03:17:00.801Z,1008.61
2022-08-11T03:18:05.306Z,1008.66
2022-08-11T03:19:09.836Z,1008.64
2022-08-11T03:20:14.355Z,1008.65
2022-08-11T03:21:18.895Z,1008.67
2022-08-11T03:22:23.403Z,1008.65
2022-08-11T03:23:27.940Z,1008.66
2022-08-11T03:24:32.481Z,1008.65
2022-08-11T03:25:36.995Z,1008.64
2022-08-11T03:26:41.518Z,1008.67
2022-08-11T03:27:46.036Z,1008.65
2022-08-11T03:28:50.576Z,1008.63
2022-08-11T03:29:55.085Z,1008.65
2022-08-11T03:30:59.596Z,1008.65
2022-08-11T03:32:04.116Z,1008.64
2022-08-11T03:33:08.617Z,1008.63
2022-08-11T03:34:13.176Z,1008.65
2022-08-11T03:35:21.158Z,1008.64
2022-08-11T03:36:22.208Z,1008.64
2022-08-11T03:37:26.727Z,1008.64
2022-08-11T03:38:31.250Z,1008.60
2022-08-11T03:39:35.840Z,1008.65
2022-08-11T03:40:40.309Z,1008.66
2022-08-11T03:42:02.490Z,1008.65
2022-08-11T03:42:49.339Z,1008.63
2022-08-11T03:43:57.968Z,1008.68
2022-08-11T03:44:58.379Z,1008.65
2022-08-11T03:46:02.908Z,1008.67
2022-08-11T03:47:07.433Z,1008.64
2022-08-11T03:48:12.000Z,1008.65
2022-08-11T03:49:16.531Z,1008.61
2022-08-11T03:50:21.070Z,1008.65
2022-08-11T03:51:25.584Z,1008.62
2022-08-11T03:52:30.098Z,1008.58
2022-08-11T03:53:34.609Z,1008.58
2022-08-11T03:54:39.149Z,1008.55
2022-08-11T03:55:43.770Z,1008.56
2022-08-11T03:56:48.243Z,1008.53
2022-08-11T03:57:52.751Z,1008.54
2022-08-11T03:58:57.270Z,1008.57
2022-08-11T04:00:01.812Z,1008.58
2022-08-11T04:01:06.344Z,1008.61
2022-08-11T04:02:10.860Z,1008.58
2022-08-11T04:03:15.371Z,1008.58
2022-08-11T04:04:19.901Z,1008.62
2022-08-11T04:05:24.415Z,1008.60
2022-08-11T04:06:28.922Z,1008.57
2022-08-11T04:07:33.426Z,1008.60
2022-08-11T04:08:38.021Z,1008.57
2022-08-11T04:09:42.591Z,1008.58
2022-08-11T04:10:47.164Z,1008.61
2022-08-11T04:11:51.737Z,1008.58
2022-08-11T04:12:56.263Z,1008.58
2022-08-11T04:14:00.773Z,1008.57
2022-08-11T04:15:05.315Z,1008.54
2022-08-11T04:16:11.415Z,1008.58
2022-08-11T04:17:14.364Z,1008.57
2022-08-11T04:18:18.894Z,1008.58
2022-08-11T04:19:23.425Z,1008.63
2022-08-11T04:20:27.965Z,1008.60
2022-08-11T04:21:32.474Z,1008.62
2022-08-11T04:22:37.182Z,1008.62
2022-08-11T04:24:33.078Z,1008.64
2022-08-11T04:24:50.325Z,1008.65
2022-08-11T04:25:54.558Z,1008.64
2022-08-11T04:26:55.102Z,1008.61
2022-08-11T04:27:59.637Z,1008.60
2022-08-11T04:29:04.171Z,1008.64
2022-08-11T04:30:09.167Z,1008.60
2022-08-11T04:31:13.238Z,1008.59
2022-08-11T04:32:17.797Z,1008.58
2022-08-11T04:33:22.297Z,1008.61
2022-08-11T04:34:26.838Z,1008.57
2022-08-11T04:35:31.357Z,1008.57
2022-08-11T04:36:35.884Z,1008.58
2022-08-11T04:37:40.396Z,1008.54
2022-08-11T04:38:44.906Z,1008.59
2022-08-11T04:39:49.524Z,1008.59
2022-08-11T04:40:53.978Z,1008.58
2022-08-11T04:41:58.497Z,1008.57
2022-08-11T04:43:03.019Z,1008.57
2022-08-11T04:59:53.535Z,1008.59
2022-08-11T05:00:57.945Z,1008.59
2022-08-11T05:02:02.402Z,1008.65
2022-08-11T05:03:06.753Z,1008.62
2022-08-11T05:04:11.152Z,1008.59
2022-08-11T05:05:15.600Z,1008.63
2022-08-11T05:06:19.979Z,1008.60
2022-08-11T05:07:24.418Z,1008.64
2022-08-11T05:08:28.822Z,1008.61
2022-08-11T05:09:33.202Z,1008.61
2022-08-11T05:10:40.038Z,1008.61
2022-08-11T05:11:42.021Z,1008.55
2022-08-11T05:12:46.421Z,1008.59
2022-08-11T05:13:50.794Z,1008.59
2022-08-11T05:14:55.184Z,1008.60
2022-08-11T05:15:59.584Z,1008.61
2022-08-11T05:17:03.993Z,1008.60
2022-08-11T05:18:08.363Z,1008.58
2022-08-11T05:19:16.359Z,1008.58
2022-08-11T05:20:17.173Z,1008.59
2022-08-11T05:21:21.602Z,1008.60
2022-08-11T05:22:26.003Z,1008.60
2022-08-11T05:23:30.395Z,1008.62
2022-08-11T05:24:34.776Z,1008.65
2022-08-11T05:26:45.066Z,1008.64
2022-08-11T05:26:49.326Z,1008.67
2022-08-11T05:27:47.984Z,1008.65
2022-08-11T05:28:52.367Z,1008.64
2022-08-11T05:29:56.775Z,1008.60
2022-08-11T05:31:01.198Z,1008.61
2022-08-11T05:32:05.605Z,1008.62
2022-08-11T05:33:09.995Z,1008.59
2022-08-11T05:34:14.419Z,1008.57
2022-08-11T05:36:01.297Z,1008.61
2022-08-11T05:36:23.215Z,1008.63
2022-08-11T05:37:27.938Z,1008.65
2022-08-11T05:38:32.017Z,1008.64
2022-08-11T05:39:37.238Z,1008.63
2022-08-11T05:40:40.797Z,1008.62
2022-08-11T05:41:45.188Z,1008.63
2022-08-11T05:42:49.581Z,1008.61
2022-08-11T05:44:20.147Z,1008.58
2022-08-11T05:44:58.405Z,1008.57
2022-08-11T05:46:05.617Z,1008.59
2022-08-11T05:47:07.208Z,1008.60
2022-08-11T05:48:11.588Z,1008.58
2022-08-11T05:49:16.008Z,1008.59
2022-08-11T05:50:31.321Z,1008.57
2022-08-11T05:51:30.468Z,1008.54
2022-08-11T05:52:31.626Z,1008.58
2022-08-11T05:53:35.989Z,1008.57
2022-08-11T05:54:37.919Z,1008.55
2022-08-11T05:55:52.351Z,1008.55
2022-08-11T05:56:46.776Z,1008.57
2022-08-11T05:57:52.081Z,1008.60
2022-08-11T05:58:55.510Z,1008.58
2022-08-11T05:59:59.941Z,1008.59
2022-08-11T06:01:04.361Z,1008.56
2022-08-11T06:02:09.600Z,1008.56
2022-08-11T06:03:13.984Z,1008.55
2022-08-11T06:04:18.371Z,1008.59
2022-08-11T06:05:22.786Z,1008.58
2022-08-11T06:06:27.193Z,1008.55
2022-08-11T06:07:48.402Z,1008.58
2022-08-11T06:08:36.014Z,1008.56
2022-08-11T06:09:40.430Z,1008.62
2022-08-11T06:10:44.814Z,1008.61
2022-08-11T06:11:49.210Z,1008.62
2022-08-11T06:12:53.626Z,1008.60
2022-08-11T06:13:57.992Z,1008.63
2022-08-11T06:15:02.377Z,1008.62
2022-08-11T06:16:07.270Z,1008.57
2022-08-11T06:17:11.143Z,1008.62
2022-08-11T06:18:15.520Z,1008.60
2022-08-11T06:19:19.923Z,1008.61
2022-08-11T06:20:24.304Z,1008.63
2022-08-11T06:21:28.701Z,1008.63
2022-08-11T06:22:33.154Z,1008.62
2022-08-11T06:23:37.473Z,1008.66
2022-08-11T06:24:41.862Z,1008.63
2022-08-11T06:25:46.235Z,1008.65
2022-08-11T06:27:11.211Z,1008.65
2022-08-11T06:27:55.072Z,1008.63
2022-08-11T06:28:59.487Z,1008.62
2022-08-11T06:30:04.715Z,1008.62
2022-08-11T06:31:09.122Z,1008.58
2022-08-11T06:32:13.826Z,1008.54
2022-08-11T06:33:18.105Z,1008.54
2022-08-11T06:34:26.664Z,1008.55
2022-08-11T06:35:26.985Z,1008.55
2022-08-11T06:36:31.415Z,1008.55
2022-08-11T06:37:36.653Z,1008.54
2022-08-11T06:38:40.176Z,1008.54
2022-08-11T06:39:44.644Z,1008.54
2022-08-11T06:40:48.975Z,1008.56
2022-08-11T06:41:53.348Z,1008.55
2022-08-11T06:42:57.754Z,1008.56
2022-08-11T06:44:05.358Z,1008.55
2022-08-11T06:45:07.457Z,1008.50
2022-08-11T06:46:11.900Z,1008.51
2022-08-11T06:47:16.308Z,1008.55
2022-08-11T06:48:20.706Z,1008.54
2022-08-11T06:49:25.085Z,1008.55
2022-08-11T06:50:29.459Z,1008.51
2022-08-11T06:51:33.890Z,1008.54
2022-08-11T06:52:38.259Z,1008.54
2022-08-11T06:53:42.670Z,1008.56
2022-08-11T06:54:47.072Z,1008.52
2022-08-11T06:55:57.979Z,1008.51
2022-08-11T06:58:00.280Z,1008.57
2022-08-11T06:59:04.786Z,1008.52
2022-08-11T07:00:09.056Z,1008.52
2022-08-11T07:01:13.544Z,1008.56
2022-08-11T07:02:17.868Z,1008.51
2022-08-11T07:03:22.231Z,1008.49
2022-08-11T07:04:26.610Z,1008.51
2022-08-11T07:05:31.008Z,1008.49
2022-08-11T07:06:50.291Z,1008.48
2022-08-11T07:07:39.848Z,1008.51
2022-08-11T07:08:44.224Z,1008.50
2022-08-11T07:09:48.609Z,1008.50
2022-08-11T07:10:52.999Z,1008.51
2022-08-11T07:11:57.394Z,1008.49
2022-08-11T07:13:02.097Z,1008.48
2022-08-11T07:14:06.322Z,1008.49
2022-08-11T07:15:10.701Z,1008.48
2022-08-11T07:16:16.254Z,1008.44
2022-08-11T07:17:20.641Z,1008.42
2022-08-11T07:18:25.084Z,1008.41
2022-08-11T07:19:29.472Z,1008.45
2022-08-11T07:20:33.890Z,1008.42
2022-08-11T07:22:00.814Z,1008.39
2022-08-11T07:22:42.655Z,1008.44
2022-08-11T07:23:47.044Z,1008.45
2022-08-11T07:25:01.893Z,1008.46
2022-08-11T07:25:56.041Z,1008.46
2022-08-11T07:27:00.453Z,1008.43
2022-08-11T07:28:04.875Z,1008.44
2022-08-11T07:29:09.275Z,1008.43
2022-08-11T07:30:13.695Z,1008.44
2022-08-11T07:31:18.143Z,1008.41
2022-08-11T07:32:22.651Z,1008.43
2022-08-11T07:34:07.191Z,1008.41
2022-08-11T07:34:35.931Z,1008.45
2022-08-11T07:35:40.521Z,1008.45
2022-08-11T07:36:50.313Z,1008.47
2022-08-11T07:38:04.794Z,1008.45
2022-08-11T07:40:43.403Z,1008.42
2022-08-11T07:41:48.194Z,1008.41
2022-08-11T07:42:54.402Z,1008.39
2022-08-11T07:44:00.368Z,1008.40
2022-08-11T07:45:10.663Z,1008.38
2022-08-11T07:46:20.244Z,1008.42
2022-08-11T07:47:24.886Z,1008.43
2022-08-11T08:18:27.033Z,1008.53
2022-08-11T08:23:32.454Z,1008.52
2022-08-11T08:33:03.134Z,1008.50
2022-08-11T08:49:18.711Z,1008.50
2022-08-11T08:57:06.689Z,1008.50
2022-08-11T08:59:18.112Z,1008.46
2022-08-11T09:18:33.597Z,1008.34
2022-08-11T09:19:34.205Z,1008.35
2022-08-11T09:20:38.719Z,1008.38
2022-08-11T09:21:49.307Z,1008.37
2022-08-11T09:22:57.409Z,1008.39
2022-08-11T09:24:13.081Z,1008.35
2022-08-11T09:24:57.630Z,1008.33
2022-08-11T09:26:02.121Z,1008.32
2022-08-11T09:27:06.544Z,1008.32
2022-08-11T09:28:11.061Z,1008.34
2022-08-11T09:29:15.515Z,1008.32
2022-08-11T09:30:20.030Z,1008.31
2022-08-11T09:31:24.423Z,1008.29
2022-08-11T09:32:28.921Z,1008.31
2022-08-11T09:33:33.324Z,1008.29
2022-08-11T09:34:37.785Z,1008.26
2022-08-11T09:35:42.256Z,1008.26
2022-08-11T09:36:46.699Z,1008.20
2022-08-11T09:37:55.933Z,1008.26
2022-08-11T09:38:55.747Z,1008.22
2022-08-11T09:40:00.216Z,1008.24
2022-08-11T09:41:04.649Z,1008.21
2022-08-11T09:42:11.439Z,1008.16
2022-08-11T09:43:13.625Z,1008.21
2022-08-11T09:44:18.207Z,1008.17
2022-08-11T09:45:22.648Z,1008.19
2022-08-11T09:46:27.157Z,1008.16
2022-08-11T09:47:31.600Z,1008.12
2022-08-11T09:48:36.060Z,1008.13
2022-08-11T09:49:40.519Z,1008.15
2022-08-11T09:50:44.960Z,1008.14
2022-08-11T09:51:56.552Z,1008.17
2022-08-11T09:53:34.690Z,1008.19
2022-08-11T09:54:03.725Z,1008.20
2022-08-11T09:55:02.837Z,1008.22
2022-08-11T09:56:07.521Z,1008.17
2022-08-11T09:57:12.002Z,1008.16
2022-08-11T09:58:41.652Z,1008.19
2022-08-11T09:59:20.864Z,1008.12
2022-08-11T10:00:25.358Z,1008.16
2022-08-11T10:01:29.938Z,1008.15
2022-08-11T10:02:34.320Z,1008.15
2022-08-11T10:03:40.524Z,1008.14
2022-08-11T10:04:43.219Z,1008.08
2022-08-11T10:05:47.694Z,1008.15
2022-08-11T10:06:54.425Z,1008.15
2022-08-11T10:07:56.610Z,1008.17
2022-08-11T10:09:01.112Z,1008.17
2022-08-11T10:10:05.551Z,1008.17
2022-08-11T10:11:10.992Z,1008.13
2022-08-11T10:12:15.480Z,1008.10
2022-08-11T10:14:31.647Z,1008.08
2022-08-11T10:14:32.910Z,1008.07
2022-08-11T10:15:28.861Z,1008.06
2022-08-11T10:16:33.427Z,1008.06
2022-08-11T10:17:38.044Z,1008.05
2022-08-11T10:18:42.332Z,1008.00
2022-08-11T10:20:04.520Z,1008.05
2022-08-11T10:20:51.262Z,1008.01
2022-08-11T10:21:56.082Z,1008.00
2022-08-11T10:23:00.532Z,1007.97
2022-08-11T10:24:05.920Z,1007.94
2022-08-11T10:25:09.453Z,1008.00
2022-08-11T10:26:14.024Z,1008.00
2022-08-11T10:27:18.454Z,1007.96
2022-08-11T10:28:33.816Z,1007.93
2022-08-11T10:29:33.444Z,1007.95
2022-08-11T10:30:31.864Z,1007.95
2022-08-11T10:31:45.164Z,1007.94
2022-08-11T10:32:59.282Z,1007.92
2022-08-11T10:33:57.600Z,1007.91
2022-08-11T10:34:54.620Z,1007.90
2022-08-11T10:35:54.181Z,1007.90
2022-08-11T10:36:58.667Z,1007.88
2022-08-11T10:38:08.357Z,1007.88
2022-08-11T10:39:07.652Z,1007.79
2022-08-11T10:40:12.022Z,1007.80
2022-08-11T10:41:16.555Z,1007.82
2022-08-11T10:42:41.351Z,1007.79
2022-08-11T10:44:01.689Z,1007.83
2022-08-11T10:44:29.916Z,1007.81
2022-08-11T10:45:34.364Z,1007.83
2022-08-11T10:46:38.834Z,1007.79
2022-08-11T10:47:44.393Z,1007.73
2022-08-11T10:48:47.726Z,1007.74
2022-08-11T10:49:52.203Z,1007.67
2022-08-11T10:50:56.684Z,1007.69
2022-08-11T10:52:01.176Z,1007.67
2022-08-11T10:53:05.658Z,1007.71
2022-08-11T10:54:12.494Z,1007.75
2022-08-11T10:55:14.556Z,1007.73
2022-08-11T10:56:19.047Z,1007.74
2022-08-11T10:57:23.489Z,1007.71
2022-08-11T10:58:27.964Z,1007.76
2022-08-11T10:59:32.397Z,1007.69
2022-08-11T11:00:36.850Z,1007.68
2022-08-11T11:01:41.366Z,1007.71
2022-08-11T11:02:45.788Z,1007.69
2022-08-11T11:03:50.230Z,1007.67
2022-08-11T11:04:54.679Z,1007.65
2022-08-11T11:06:12.959Z,1007.61
2022-08-11T11:07:03.630Z,1007.56
2022-08-11T11:08:08.078Z,1007.61
2022-08-11T11:09:12.530Z,1007.59
2022-08-11T11:10:16.989Z,1007.56
2022-08-11T11:11:21.500Z,1007.60
2022-08-11T11:12:25.951Z,1007.57
2022-08-11T11:13:30.412Z,1007.57
2022-08-11T11:14:34.989Z,1007.56
2022-08-11T11:15:39.310Z,1007.52
2022-08-11T11:16:43.782Z,1007.45
2022-08-11T11:17:48.230Z,1007.43
2022-08-11T11:19:00.686Z,1007.39
2022-08-11T11:19:57.141Z,1007.47
2022-08-11T11:21:01.600Z,1007.51
2022-08-11T11:22:06.093Z,1007.52
2022-08-11T11:23:10.548Z,1007.50
2022-08-11T11:24:15.013Z,1007.50
2022-08-11T11:25:19.471Z,1007.50
2022-08-11T11:26:27.026Z,1007.47
2022-08-11T11:27:28.391Z,1007.44
2022-08-11T11:28:32.840Z,1007.40
2022-08-11T11:29:37.293Z,1007.39
2022-08-11T11:30:41.741Z,1007.42
2022-08-11T11:31:46.228Z,1007.40
2022-08-11T11:32:50.673Z,1007.43
2022-08-11T11:34:06.266Z,1007.49
2022-08-11T11:34:59.581Z,1007.46
2022-08-11T11:36:04.044Z,1007.46
2022-08-11T11:37:08.654Z,1007.42
2022-08-11T11:39:39.353Z,1007.33
2022-08-11T11:40:43.755Z,1007.34
2022-08-11T11:41:48.185Z,1007.35
2022-08-11T11:42:52.650Z,1007.35
2022-08-11T11:43:57.079Z,1007.33
2022-08-11T11:45:01.716Z,1007.33
2022-08-11T11:46:06.006Z,1007.29
2022-08-11T11:47:10.479Z,1007.34
2022-08-11T11:48:14.912Z,1007.29
2022-08-11T11:50:23.789Z,1007.30
2022-08-11T11:51:28.219Z,1007.29
2022-08-11T11:52:32.681Z,1007.29
2022-08-11T11:53:37.120Z,1007.25
2022-08-11T11:54:41.614Z,1007.27
2022-08-11T11:55:45.991Z,1007.24
2022-08-11T11:56:50.429Z,1007.21
2022-08-11T11:57:58.684Z,1007.16
2022-08-11T11:58:59.329Z,1007.15
2022-08-11T12:00:03.762Z,1007.14
2022-08-11T12:01:08.208Z,1007.12
2022-08-11T12:02:12.737Z,1007.13
2022-08-11T12:03:17.136Z,1007.15
2022-08-11T12:04:21.549Z,1007.11
2022-08-11T12:05:25.986Z,1007.09
2022-08-11T12:06:30.421Z,1007.10
2022-08-11T12:07:34.962Z,1007.07
2022-08-11T12:08:39.352Z,1007.09
2022-08-11T12:09:43.783Z,1007.12
2022-08-11T12:10:48.256Z,1007.10
2022-08-11T12:11:52.707Z,1007.08
2022-08-11T12:12:57.162Z,1007.01
2022-08-11T12:14:01.633Z,1007.04
2022-08-11T12:15:06.070Z,1007.10
2022-08-11T12:16:34.559Z,1007.07
2022-08-11T12:17:14.951Z,1007.06
2022-08-11T12:18:19.415Z,1007.04
2022-08-11T12:19:23.866Z,1007.05
2022-08-11T12:20:31.669Z,1006.97
2022-08-11T12:21:32.743Z,1007.02
2022-08-11T12:22:37.187Z,1007.01
2022-08-11T12:23:41.644Z,1007.03
2022-08-11T12:24:46.074Z,1006.98
2022-08-11T12:26:04.562Z,1006.97
2022-08-11T12:27:17.182Z,1006.96
2022-08-11T12:27:59.394Z,1006.98
2022-08-11T12:29:03.872Z,1006.95
2022-08-11T12:30:08.316Z,1006.98
2022-08-11T12:31:12.761Z,1006.96
2022-08-11T12:32:17.206Z,1006.94
2022-08-11T12:33:21.647Z,1006.98
2022-08-11T12:34:26.126Z,1006.97
2022-08-11T12:35:30.564Z,1006.94
2022-08-11T12:36:35.078Z,1006.96
2022-08-11T12:37:39.591Z,1006.96
2022-08-11T12:38:43.935Z,1006.94
2022-08-11T12:40:17.263Z,1006.97
2022-08-11T12:41:14.941Z,1006.91
2022-08-11T12:41:57.320Z,1006.89
2022-08-11T12:43:01.728Z,1006.90
2022-08-11T12:44:06.191Z,1006.87
2022-08-11T12:45:22.000Z,1006.76
2022-08-11T12:46:15.089Z,1006.76
2022-08-11T12:47:19.528Z,1006.83
2022-08-11T12:48:58.518Z,1006.83
2022-08-11T12:49:28.430Z,1006.80
2022-08-11T12:50:32.873Z,1006.82
2022-08-11T12:52:00.746Z,1006.81
2022-08-11T12:52:41.762Z,1006.74
2022-08-11T12:53:46.208Z,1006.80
2022-08-11T12:54:50.659Z,1006.80
2022-08-11T12:56:07.610Z,1006.82
2022-08-11T12:56:59.535Z,1006.71
2022-08-11T12:58:03.980Z,1006.70
2022-08-11T12:59:08.431Z,1006.68
2022-08-11T13:00:12.883Z,1006.71
2022-08-11T13:01:17.407Z,1006.64
2022-08-11T13:02:21.753Z,1006.66
2022-08-11T13:03:26.200Z,1006.59
2022-08-11T13:04:30.664Z,1006.57
2022-08-11T13:05:41.324Z,1006.56
2022-08-11T13:06:39.604Z,1006.55
2022-08-11T13:07:50.772Z,1006.54
2022-08-11T13:08:48.462Z,1006.56
2022-08-11T13:09:52.912Z,1006.61
2022-08-11T13:10:57.351Z,1006.65
2022-08-11T13:12:01.784Z,1006.61
2022-08-11T13:13:06.233Z,1006.56
2022-08-11T13:14:14.633Z,1006.55
2022-08-11T13:15:15.173Z,1006.48
2022-08-11T13:16:19.616Z,1006.49
2022-08-11T13:17:43.450Z,1006.50
2022-08-11T13:18:28.493Z,1006.51
2022-08-11T13:19:32.957Z,1006.47
2022-08-11T13:20:37.387Z,1006.51
2022-08-11T13:21:41.815Z,1006.51
2022-08-11T13:22:46.244Z,1006.49
2022-08-11T13:24:00.439Z,1006.49
2022-08-11T13:24:55.135Z,1006.51
2022-08-11T13:25:59.746Z,1006.48
2022-08-11T13:27:04.176Z,1006.51
2022-08-11T13:28:08.616Z,1006.45
2022-08-11T13:29:13.036Z,1006.38
2022-08-11T13:30:17.498Z,1006.37
2022-08-11T13:31:21.936Z,1006.40
2022-08-11T13:32:26.382Z,1006.44
2022-08-11T13:33:30.799Z,1006.36
2022-08-11T13:34:35.265Z,1006.36
2022-08-11T13:35:39.707Z,1006.31
2022-08-11T13:36:44.137Z,1006.30
2022-08-11T13:38:19.081Z,1006.38
2022-08-11T13:38:53.017Z,1006.39
2022-08-11T13:39:57.513Z,1006.33
2022-08-11T13:41:01.896Z,1006.37
2022-08-11T13:42:06.335Z,1006.38
2022-08-11T13:43:10.759Z,1006.36
2022-08-11T13:44:15.832Z,1006.39
2022-08-11T13:45:19.660Z,1006.44
2022-08-11T13:46:24.087Z,1006.42
2022-08-11T13:47:28.519Z,1006.40
2022-08-11T13:48:32.962Z,1006.42
2022-08-11T13:49:39.734Z,1006.41
2022-08-11T13:50:41.847Z,1006.44
2022-08-11T13:51:46.279Z,1006.39
2022-08-11T13:52:53.288Z,1006.43
2022-08-11T13:53:55.143Z,1006.36
2022-08-11T13:54:59.611Z,1006.37
2022-08-11T13:56:04.041Z,1006.35
2022-08-11T13:57:13.426Z,1006.33
2022-08-11T13:58:20.740Z,1006.34
2022-08-11T13:59:17.360Z,1006.32
2022-08-11T14:00:24.957Z,1006.29
2022-08-11T14:02:19.835Z,1006.31
2022-08-11T14:02:31.082Z,1006.25
2022-08-11T14:04:28.711Z,1006.31
2022-08-11T14:04:39.565Z,1006.25
2022-08-11T14:05:45.910Z,1006.23
2022-08-11T14:06:48.453Z,1006.16
2022-08-11T14:07:52.894Z,1006.13
2022-08-11T14:08:57.332Z,1006.23
2022-08-11T14:10:01.785Z,1006.19
2022-08-11T14:11:06.220Z,1006.18
2022-08-11T14:12:21.553Z,1006.12
2022-08-11T14:13:15.093Z,1006.19
2022-08-11T14:14:19.520Z,1006.17
2022-08-11T14:15:23.995Z,1006.20
2022-08-11T14:16:28.494Z,1006.15
2022-08-11T14:17:35.975Z,1006.20
2022-08-11T14:18:37.347Z,1006.20
2022-08-11T14:19:41.809Z,1006.15
2022-08-11T14:20:46.254Z,1006.19
2022-08-11T14:21:54.187Z,1006.16
2022-08-11T14:22:55.128Z,1006.12
2022-08-11T14:24:01.439Z,1006.14
2022-08-11T14:25:03.975Z,1006.16
2022-08-11T14:26:08.424Z,1006.16
2022-08-11T14:28:30.582Z,1006.13
2022-08-11T14:28:31.528Z,1006.11
2022-08-11T14:29:21.713Z,1006.16
2022-08-11T14:30:26.173Z,1006.07
2022-08-11T14:31:30.612Z,1006.12
2022-08-11T14:32:35.037Z,1006.08
2022-08-11T14:34:00.947Z,1006.07
2022-08-11T14:34:43.918Z,1006.07
2022-08-11T14:35:50.218Z,1006.04
2022-08-11T14:36:52.796Z,1006.07
2022-08-11T14:37:57.230Z,1006.08
2022-08-11T14:39:01.673Z,1006.02
2022-08-11T14:40:06.147Z,1006.01
2022-08-11T14:41:10.554Z,1006.02
2022-08-11T14:42:14.983Z,1006.02
2022-08-11T14:43:19.426Z,1005.98
2022-08-11T14:44:23.867Z,1006.02